sensor_id;sensor_type;location;lat;lon;timestamp;pressure;altitude;pressure_sealevel;temperature;humidity
24620;BME280;12763;55.802;37.404;2023-03-04T00:00:37;97818.25;;;1.60;96.69
24620;BME280;12763;55.802;37.404;2023-03-04T00:03:08;97807.53;;;1.58;97.79
24620;BME280;12763;55.802;37.404;2023-03-04T00:05:36;97810.41;;;1.44;97.91
24620;BME280;12763;55.802;37.404;2023-03-04T00:08:02;97813.16;;;1.50;98.57
24620;BME280;12763;55.802;37.404;2023-03-04T00:10:28;97806.66;;;1.45;98.21
24620;BME280;12763;55.802;37.404;2023-03-04T00:12:54;97801.44;;;1.50;97.89
24620;BME280;12763;55.802;37.404;2023-03-04T00:15:20;97807.38;;;1.60;98.37
24620;BME280;12763;55.802;37.404;2023-03-04T00:17:45;97787.22;;;1.48;97.99
24620;BME280;12763;55.802;37.404;2023-03-04T00:20:12;97774.25;;;1.50;97.66
24620;BME280;12763;55.802;37.404;2023-03-04T00:22:37;97786.53;;;1.33;99.30
24620;BME280;12763;55.802;37.404;2023-03-04T00:25:03;97781.97;;;1.40;99.54
24620;BME280;12763;55.802;37.404;2023-03-04T00:27:29;97779.94;;;1.61;98.10
24620;BME280;12763;55.802;37.404;2023-03-04T00:29:55;97781.19;;;1.59;97.56
24620;BME280;12763;55.802;37.404;2023-03-04T00:32:21;97784.78;;;1.66;96.68
24620;BME280;12763;55.802;37.404;2023-03-04T00:34:47;97786.28;;;1.21;98.59
24620;BME280;12763;55.802;37.404;2023-03-04T00:37:13;97786.13;;;1.36;99.25
24620;BME280;12763;55.802;37.404;2023-03-04T00:39:38;97787.84;;;1.02;100.00
24620;BME280;12763;55.802;37.404;2023-03-04T00:42:04;97784.34;;;0.74;100.00
24620;BME280;12763;55.802;37.404;2023-03-04T00:44:30;97786.34;;;1.34;100.00
24620;BME280;12763;55.802;37.404;2023-03-04T00:46:56;97780.78;;;1.55;99.60
24620;BME280;12763;55.802;37.404;2023-03-04T00:49:22;97779.28;;;1.53;99.35
24620;BME280;12763;55.802;37.404;2023-03-04T00:51:48;97783.81;;;1.26;98.67
24620;BME280;12763;55.802;37.404;2023-03-04T00:54:13;97774.66;;;1.40;99.37
24620;BME280;12763;55.802;37.404;2023-03-04T00:56:39;97780.50;;;1.44;98.81
24620;BME280;12763;55.802;37.404;2023-03-04T00:59:05;97781.50;;;1.23;100.00
24620;BME280;12763;55.802;37.404;2023-03-04T01:01:31;97778.31;;;1.19;100.00
24620;BME280;12763;55.802;37.404;2023-03-04T01:03:56;97779.63;;;1.24;100.00
24620;BME280;12763;55.802;37.404;2023-03-04T01:06:22;97770.00;;;1.21;100.00
24620;BME280;12763;55.802;37.404;2023-03-04T01:08:48;97763.72;;;1.27;100.00
24620;BME280;12763;55.802;37.404;2023-03-04T01:11:14;97764.97;;;1.25;100.00
24620;BME280;12763;55.802;37.404;2023-03-04T01:13:39;97753.50;;;1.36;99.96
24620;BME280;12763;55.802;37.404;2023-03-04T01:16:06;97761.34;;;1.11;100.00
24620;BME280;12763;55.802;37.404;2023-03-04T01:18:32;97772.16;;;0.98;100.00
24620;BME280;12763;55.802;37.404;2023-03-04T01:20:58;97762.69;;;0.87;100.00
24620;BME280;12763;55.802;37.404;2023-03-04T01:23:24;97754.38;;;0.95;100.00
24620;BME280;12763;55.802;37.404;2023-03-04T01:25:50;97770.50;;;0.69;100.00
24620;BME280;12763;55.802;37.404;2023-03-04T01:28:17;97761.50;;;0.96;100.00
24620;BME280;12763;55.802;37.404;2023-03-04T01:30:43;97758.50;;;0.85;100.00
24620;BME280;12763;55.802;37.404;2023-03-04T01:33:09;97754.00;;;0.98;100.00
24620;BME280;12763;55.802;37.404;2023-03-04T01:35:34;97752.19;;;1.12;100.00
24620;BME280;12763;55.802;37.404;2023-03-04T01:38:00;97746.81;;;0.84;100.00
24620;BME280;12763;55.802;37.404;2023-03-04T01:40:26;97745.56;;;0.87;100.00
24620;BME280;12763;55.802;37.404;2023-03-04T01:42:53;97735.22;;;1.03;100.00
24620;BME280;12763;55.802;37.404;2023-03-04T01:45:19;97736.41;;;0.88;100.00
24620;BME280;12763;55.802;37.404;2023-03-04T01:47:47;97734.53;;;0.95;100.00
24620;BME280;12763;55.802;37.404;2023-03-04T01:50:32;97728.44;;;1.34;100.00
24620;BME280;12763;55.802;37.404;2023-03-04T01:52:59;97721.06;;;1.14;100.00
24620;BME280;12763;55.802;37.404;2023-03-04T01:55:25;97719.00;;;1.23;100.00
24620;BME280;12763;55.802;37.404;2023-03-04T01:57:52;97712.81;;;0.95;100.00
24620;BME280;12763;55.802;37.404;2023-03-04T02:00:20;97709.25;;;0.94;100.00
24620;BME280;12763;55.802;37.404;2023-03-04T02:02:49;97707.88;;;1.11;100.00
24620;BME280;12763;55.802;37.404;2023-03-04T02:05:15;97700.16;;;1.22;100.00
24620;BME280;12763;55.802;37.404;2023-03-04T02:07:42;97701.47;;;1.39;100.00
24620;BME280;12763;55.802;37.404;2023-03-04T02:10:10;97696.84;;;1.33;100.00
24620;BME280;12763;55.802;37.404;2023-03-04T02:12:38;97692.25;;;1.33;100.00
24620;BME280;12763;55.802;37.404;2023-03-04T02:15:04;97690.56;;;1.26;100.00
24620;BME280;12763;55.802;37.404;2023-03-04T02:17:31;97688.66;;;1.19;100.00
24620;BME280;12763;55.802;37.404;2023-03-04T02:20:22;97684.78;;;1.48;100.00
24620;BME280;12763;55.802;37.404;2023-03-04T02:23:03;97681.41;;;1.40;100.00
24620;BME280;12763;55.802;37.404;2023-03-04T02:25:48;97672.66;;;1.38;100.00
24620;BME280;12763;55.802;37.404;2023-03-04T02:28:15;97666.94;;;1.19;100.00
24620;BME280;12763;55.802;37.404;2023-03-04T02:30:41;97675.69;;;1.08;100.00
24620;BME280;12763;55.802;37.404;2023-03-04T02:33:13;97677.22;;;1.24;100.00
24620;BME280;12763;55.802;37.404;2023-03-04T02:35:40;97660.03;;;1.10;100.00
24620;BME280;12763;55.802;37.404;2023-03-04T02:38:06;97668.91;;;0.91;100.00
24620;BME280;12763;55.802;37.404;2023-03-04T02:40:33;97670.47;;;1.13;100.00
24620;BME280;12763;55.802;37.404;2023-03-04T02:43:00;97663.97;;;1.01;100.00
24620;BME280;12763;55.802;37.404;2023-03-04T02:45:30;97664.72;;;0.82;100.00
24620;BME280;12763;55.802;37.404;2023-03-04T02:47:59;97653.16;;;0.61;100.00
24620;BME280;12763;55.802;37.404;2023-03-04T02:50:27;97658.09;;;0.98;100.00
24620;BME280;12763;55.802;37.404;2023-03-04T02:52:54;97650.75;;;0.85;100.00
24620;BME280;12763;55.802;37.404;2023-03-04T02:55:20;97644.44;;;0.78;100.00
24620;BME280;12763;55.802;37.404;2023-03-04T02:57:46;97639.53;;;1.01;100.00
24620;BME280;12763;55.802;37.404;2023-03-04T03:00:12;97644.25;;;0.86;100.00
24620;BME280;12763;55.802;37.404;2023-03-04T03:02:40;97644.31;;;0.52;100.00
24620;BME280;12763;55.802;37.404;2023-03-04T03:05:06;97641.28;;;0.68;100.00
24620;BME280;12763;55.802;37.404;2023-03-04T03:07:32;97644.31;;;0.52;100.00
24620;BME280;12763;55.802;37.404;2023-03-04T03:10:00;97640.94;;;0.91;100.00
24620;BME280;12763;55.802;37.404;2023-03-04T03:12:26;97643.94;;;0.55;100.00
24620;BME280;12763;55.802;37.404;2023-03-04T03:14:51;97641.09;;;0.76;100.00
24620;BME280;12763;55.802;37.404;2023-03-04T03:17:19;97642.06;;;0.62;100.00
24620;BME280;12763;55.802;37.404;2023-03-04T03:19:46;97646.78;;;0.88;100.00
24620;BME280;12763;55.802;37.404;2023-03-04T03:22:12;97624.66;;;0.43;100.00
24620;BME280;12763;55.802;37.404;2023-03-04T03:24:38;97624.69;;;0.50;100.00
24620;BME280;12763;55.802;37.404;2023-03-04T03:27:04;97632.38;;;0.87;100.00
24620;BME280;12763;55.802;37.404;2023-03-04T03:29:30;97626.63;;;0.69;100.00
24620;BME280;12763;55.802;37.404;2023-03-04T03:31:55;97617.81;;;0.54;100.00
24620;BME280;12763;55.802;37.404;2023-03-04T03:34:21;97622.63;;;0.58;100.00
24620;BME280;12763;55.802;37.404;2023-03-04T03:36:48;97615.50;;;0.51;100.00
24620;BME280;12763;55.802;37.404;2023-03-04T03:39:15;97613.38;;;0.40;100.00
24620;BME280;12763;55.802;37.404;2023-03-04T03:41:41;97607.75;;;0.48;100.00
24620;BME280;12763;55.802;37.404;2023-03-04T03:44:06;97603.44;;;0.60;100.00
24620;BME280;12763;55.802;37.404;2023-03-04T03:46:32;97603.44;;;0.60;100.00
24620;BME280;12763;55.802;37.404;2023-03-04T03:49:00;97597.72;;;0.42;100.00
24620;BME280;12763;55.802;37.404;2023-03-04T03:51:26;97588.50;;;0.36;100.00
24620;BME280;12763;55.802;37.404;2023-03-04T03:53:51;97592.84;;;0.31;100.00
24620;BME280;12763;55.802;37.404;2023-03-04T03:56:17;97580.84;;;0.53;100.00
24620;BME280;12763;55.802;37.404;2023-03-04T03:58:43;97586.19;;;0.74;100.00
24620;BME280;12763;55.802;37.404;2023-03-04T04:01:09;97567.94;;;0.55;100.00
24620;BME280;12763;55.802;37.404;2023-03-04T04:03:35;97572.63;;;0.87;100.00
24620;BME280;12763;55.802;37.404;2023-03-04T04:06:01;97557.97;;;0.75;100.00
24620;BME280;12763;55.802;37.404;2023-03-04T04:08:26;97563.53;;;0.54;100.00
24620;BME280;12763;55.802;37.404;2023-03-04T04:10:52;97558.34;;;0.59;100.00
24620;BME280;12763;55.802;37.404;2023-03-04T04:13:18;97551.69;;;0.68;100.00
24620;BME280;12763;55.802;37.404;2023-03-04T04:15:44;97544.59;;;0.80;100.00
24620;BME280;12763;55.802;37.404;2023-03-04T04:18:10;97547.69;;;0.64;100.00
24620;BME280;12763;55.802;37.404;2023-03-04T04:20:35;97546.84;;;0.57;100.00
24620;BME280;12763;55.802;37.404;2023-03-04T04:23:01;97549.59;;;0.70;100.00
24620;BME280;12763;55.802;37.404;2023-03-04T04:25:27;97537.75;;;0.91;100.00
24620;BME280;12763;55.802;37.404;2023-03-04T04:27:53;97530.94;;;0.41;100.00
24620;BME280;12763;55.802;37.404;2023-03-04T04:30:19;97530.63;;;0.23;100.00
24620;BME280;12763;55.802;37.404;2023-03-04T04:32:45;97533.28;;;0.57;100.00
24620;BME280;12763;55.802;37.404;2023-03-04T04:35:11;97529.97;;;0.75;100.00
24620;BME280;12763;55.802;37.404;2023-03-04T04:37:36;97530.78;;;0.62;100.00
24620;BME280;12763;55.802;37.404;2023-03-04T04:40:03;97528.25;;;0.54;100.00
24620;BME280;12763;55.802;37.404;2023-03-04T04:42:29;97526.00;;;0.71;100.00
24620;BME280;12763;55.802;37.404;2023-03-04T04:44:55;97521.47;;;0.97;100.00
24620;BME280;12763;55.802;37.404;2023-03-04T04:47:22;97526.19;;;0.69;100.00
24620;BME280;12763;55.802;37.404;2023-03-04T04:49:48;97521.63;;;0.63;100.00
24620;BME280;12763;55.802;37.404;2023-03-04T04:52:13;97522.28;;;0.91;100.00
24620;BME280;12763;55.802;37.404;2023-03-04T04:54:39;97514.56;;;0.88;100.00
24620;BME280;12763;55.802;37.404;2023-03-04T04:57:05;97519.63;;;1.17;100.00
24620;BME280;12763;55.802;37.404;2023-03-04T04:59:30;97516.69;;;1.12;100.00
24620;BME280;12763;55.802;37.404;2023-03-04T05:01:56;97512.50;;;1.23;100.00
24620;BME280;12763;55.802;37.404;2023-03-04T05:04:22;97509.19;;;1.41;100.00
24620;BME280;12763;55.802;37.404;2023-03-04T05:06:48;97524.00;;;1.58;100.00
24620;BME280;12763;55.802;37.404;2023-03-04T05:09:13;97509.13;;;1.67;100.00
24620;BME280;12763;55.802;37.404;2023-03-04T05:11:39;97506.19;;;1.75;100.00
24620;BME280;12763;55.802;37.404;2023-03-04T05:14:05;97503.06;;;1.71;100.00
24620;BME280;12763;55.802;37.404;2023-03-04T05:16:31;97489.03;;;1.81;100.00
24620;BME280;12763;55.802;37.404;2023-03-04T05:18:57;97496.81;;;1.71;100.00
24620;BME280;12763;55.802;37.404;2023-03-04T05:21:23;97492.13;;;1.98;100.00
24620;BME280;12763;55.802;37.404;2023-03-04T05:23:49;97498.38;;;2.11;100.00
24620;BME280;12763;55.802;37.404;2023-03-04T05:26:16;97500.06;;;2.06;100.00
24620;BME280;12763;55.802;37.404;2023-03-04T05:28:43;97502.53;;;2.07;100.00
24620;BME280;12763;55.802;37.404;2023-03-04T05:31:09;97498.41;;;1.98;100.00
24620;BME280;12763;55.802;37.404;2023-03-04T05:33:36;97511.59;;;1.95;100.00
24620;BME280;12763;55.802;37.404;2023-03-04T05:36:03;97502.16;;;1.97;100.00
24620;BME280;12763;55.802;37.404;2023-03-04T05:38:30;97516.00;;;1.89;100.00
24620;BME280;12763;55.802;37.404;2023-03-04T05:40:58;97516.22;;;1.88;100.00
24620;BME280;12763;55.802;37.404;2023-03-04T05:43:26;97501.63;;;1.56;100.00
24620;BME280;12763;55.802;37.404;2023-03-04T05:45:53;97499.50;;;1.77;100.00
24620;BME280;12763;55.802;37.404;2023-03-04T05:48:20;97493.41;;;1.95;100.00
24620;BME280;12763;55.802;37.404;2023-03-04T05:50:45;97494.84;;;2.04;100.00
24620;BME280;12763;55.802;37.404;2023-03-04T05:53:12;97493.78;;;2.05;98.83
24620;BME280;12763;55.802;37.404;2023-03-04T05:55:38;97488.63;;;1.77;100.00
24620;BME280;12763;55.802;37.404;2023-03-04T05:58:04;97482.38;;;1.64;100.00
24620;BME280;12763;55.802;37.404;2023-03-04T06:00:29;97480.66;;;1.83;100.00
24620;BME280;12763;55.802;37.404;2023-03-04T06:02:55;97473.16;;;1.78;100.00
24620;BME280;12763;55.802;37.404;2023-03-04T06:05:22;97479.38;;;1.98;100.00
24620;BME280;12763;55.802;37.404;2023-03-04T06:07:48;97469.72;;;2.09;100.00
24620;BME280;12763;55.802;37.404;2023-03-04T06:10:16;97473.16;;;2.35;99.27
24620;BME280;12763;55.802;37.404;2023-03-04T06:12:42;97472.88;;;2.50;98.54
24620;BME280;12763;55.802;37.404;2023-03-04T06:15:08;97465.56;;;2.44;98.20
24620;BME280;12763;55.802;37.404;2023-03-04T06:17:36;97473.22;;;2.60;97.62
24620;BME280;12763;55.802;37.404;2023-03-04T06:20:03;97463.88;;;2.50;96.96
24620;BME280;12763;55.802;37.404;2023-03-04T06:22:30;97463.66;;;2.82;96.42
24620;BME280;12763;55.802;37.404;2023-03-04T06:24:56;97461.19;;;2.74;95.58
24620;BME280;12763;55.802;37.404;2023-03-04T06:27:21;97460.19;;;2.69;95.95
24620;BME280;12763;55.802;37.404;2023-03-04T06:29:47;97454.31;;;3.03;95.10
24620;BME280;12763;55.802;37.404;2023-03-04T06:32:13;97448.06;;;2.96;93.70
24620;BME280;12763;55.802;37.404;2023-03-04T06:34:39;97453.44;;;3.09;93.22
24620;BME280;12763;55.802;37.404;2023-03-04T06:37:04;97444.16;;;2.85;94.03
24620;BME280;12763;55.802;37.404;2023-03-04T06:39:30;97443.28;;;2.91;93.38
24620;BME280;12763;55.802;37.404;2023-03-04T06:41:57;97437.56;;;2.68;93.77
24620;BME280;12763;55.802;37.404;2023-03-04T06:44:23;97438.84;;;2.97;93.56
24620;BME280;12763;55.802;37.404;2023-03-04T06:46:49;97445.19;;;3.16;92.83
24620;BME280;12763;55.802;37.404;2023-03-04T06:49:15;97430.78;;;3.33;91.94
24620;BME280;12763;55.802;37.404;2023-03-04T06:51:40;97428.97;;;3.45;90.84
24620;BME280;12763;55.802;37.404;2023-03-04T06:54:06;97424.50;;;3.33;90.39
24620;BME280;12763;55.802;37.404;2023-03-04T06:56:32;97421.22;;;3.24;89.55
24620;BME280;12763;55.802;37.404;2023-03-04T06:58:57;97405.25;;;3.28;90.15
24620;BME280;12763;55.802;37.404;2023-03-04T07:01:25;97413.78;;;3.56;89.07
24620;BME280;12763;55.802;37.404;2023-03-04T07:03:52;97405.06;;;3.66;88.36
24620;BME280;12763;55.802;37.404;2023-03-04T07:06:21;97406.22;;;3.94;87.93
24620;BME280;12763;55.802;37.404;2023-03-04T07:08:48;97395.06;;;4.14;85.63
24620;BME280;12763;55.802;37.404;2023-03-04T07:11:15;97397.28;;;4.05;85.86
24620;BME280;12763;55.802;37.404;2023-03-04T07:13:41;97389.50;;;4.21;85.51
24620;BME280;12763;55.802;37.404;2023-03-04T07:16:08;97384.88;;;4.21;85.14
24620;BME280;12763;55.802;37.404;2023-03-04T07:18:35;97373.44;;;4.31;86.04
24620;BME280;12763;55.802;37.404;2023-03-04T07:21:01;97368.97;;;4.18;84.21
24620;BME280;12763;55.802;37.404;2023-03-04T07:23:27;97365.19;;;4.49;84.79
24620;BME280;12763;55.802;37.404;2023-03-04T07:25:53;97356.53;;;4.52;84.42
24620;BME280;12763;55.802;37.404;2023-03-04T07:28:19;97360.59;;;4.72;84.10
24620;BME280;12763;55.802;37.404;2023-03-04T07:30:45;97362.22;;;5.03;82.94
24620;BME280;12763;55.802;37.404;2023-03-04T07:33:12;97357.88;;;4.61;82.64
24620;BME280;12763;55.802;37.404;2023-03-04T07:35:39;97351.78;;;4.47;82.71
24620;BME280;12763;55.802;37.404;2023-03-04T07:38:05;97360.44;;;4.26;83.45
24620;BME280;12763;55.802;37.404;2023-03-04T07:40:31;97355.50;;;3.87;85.26
24620;BME280;12763;55.802;37.404;2023-03-04T07:42:58;97349.84;;;3.88;84.79
24620;BME280;12763;55.802;37.404;2023-03-04T07:45:26;97349.69;;;3.83;86.17
24620;BME280;12763;55.802;37.404;2023-03-04T07:47:52;97351.59;;;3.46;86.66
24620;BME280;12763;55.802;37.404;2023-03-04T07:50:19;97350.91;;;3.33;88.23
24620;BME280;12763;55.802;37.404;2023-03-04T07:52:47;97355.91;;;3.54;87.66
24620;BME280;12763;55.802;37.404;2023-03-04T07:55:14;97354.75;;;3.43;86.83
24620;BME280;12763;55.802;37.404;2023-03-04T07:57:41;97347.28;;;3.39;88.08
24620;BME280;12763;55.802;37.404;2023-03-04T08:00:09;97343.25;;;3.41;87.40
24620;BME280;12763;55.802;37.404;2023-03-04T08:02:39;97342.97;;;3.49;88.09
24620;BME280;12763;55.802;37.404;2023-03-04T08:05:05;97337.78;;;3.60;86.37
24620;BME280;12763;55.802;37.404;2023-03-04T08:07:31;97334.91;;;3.91;85.74
24620;BME280;12763;55.802;37.404;2023-03-04T08:09:57;97332.44;;;4.19;84.14
24620;BME280;12763;55.802;37.404;2023-03-04T08:12:23;97326.50;;;4.63;82.46
24620;BME280;12763;55.802;37.404;2023-03-04T08:14:51;97327.56;;;4.62;80.87
24620;BME280;12763;55.802;37.404;2023-03-04T08:17:17;97325.44;;;4.23;80.88
24620;BME280;12763;55.802;37.404;2023-03-04T08:19:43;97312.84;;;3.92;81.63
24620;BME280;12763;55.802;37.404;2023-03-04T08:22:09;97311.31;;;4.26;82.12
24620;BME280;12763;55.802;37.404;2023-03-04T08:24:35;97324.59;;;3.93;82.15
24620;BME280;12763;55.802;37.404;2023-03-04T08:27:01;97314.69;;;3.62;83.84
24620;BME280;12763;55.802;37.404;2023-03-04T08:29:27;97305.84;;;3.67;82.71
24620;BME280;12763;55.802;37.404;2023-03-04T08:31:53;97308.41;;;3.80;83.06
24620;BME280;12763;55.802;37.404;2023-03-04T08:34:22;97311.19;;;3.73;83.68
24620;BME280;12763;55.802;37.404;2023-03-04T08:36:48;97306.78;;;3.90;82.67
24620;BME280;12763;55.802;37.404;2023-03-04T08:39:16;97296.94;;;4.19;82.21
24620;BME280;12763;55.802;37.404;2023-03-04T08:41:43;97304.34;;;4.30;81.23
24620;BME280;12763;55.802;37.404;2023-03-04T08:44:09;97294.31;;;4.65;80.41
24620;BME280;12763;55.802;37.404;2023-03-04T08:46:39;97292.44;;;4.78;79.08
24620;BME280;12763;55.802;37.404;2023-03-04T08:49:06;97285.72;;;4.50;79.08
24620;BME280;12763;55.802;37.404;2023-03-04T08:51:32;97288.81;;;4.42;80.26
24620;BME280;12763;55.802;37.404;2023-03-04T08:54:01;97269.59;;;4.07;81.51
24620;BME280;12763;55.802;37.404;2023-03-04T08:56:27;97281.75;;;4.23;81.94
24620;BME280;12763;55.802;37.404;2023-03-04T08:58:53;97271.16;;;4.68;79.58
24620;BME280;12763;55.802;37.404;2023-03-04T09:01:18;97258.81;;;5.12;77.38
24620;BME280;12763;55.802;37.404;2023-03-04T09:03:44;97258.06;;;5.28;76.83
24620;BME280;12763;55.802;37.404;2023-03-04T09:06:15;97255.75;;;5.71;74.31
24620;BME280;12763;55.802;37.404;2023-03-04T09:08:41;97254.75;;;6.17;73.96
24620;BME280;12763;55.802;37.404;2023-03-04T09:11:07;97255.50;;;5.61;73.66
24620;BME280;12763;55.802;37.404;2023-03-04T09:13:33;97245.03;;;5.30;74.00
24620;BME280;12763;55.802;37.404;2023-03-04T09:15:59;97248.97;;;4.76;74.98
24620;BME280;12763;55.802;37.404;2023-03-04T09:18:26;97237.78;;;5.01;75.18
24620;BME280;12763;55.802;37.404;2023-03-04T09:20:53;97226.78;;;5.47;74.59
24620;BME280;12763;55.802;37.404;2023-03-04T09:23:19;97223.16;;;5.18;73.84
24620;BME280;12763;55.802;37.404;2023-03-04T09:25:46;97222.13;;;5.08;75.08
24620;BME280;12763;55.802;37.404;2023-03-04T09:28:14;97216.44;;;4.74;74.60
24620;BME280;12763;55.802;37.404;2023-03-04T09:30:40;97212.50;;;4.82;75.58
24620;BME280;12763;55.802;37.404;2023-03-04T09:33:06;97212.28;;;4.72;75.73
24620;BME280;12763;55.802;37.404;2023-03-04T09:35:32;97209.28;;;4.97;75.02
24620;BME280;12763;55.802;37.404;2023-03-04T09:37:58;97195.47;;;5.03;74.43
24620;BME280;12763;55.802;37.404;2023-03-04T09:40:31;97188.03;;;4.87;73.57
24620;BME280;12763;55.802;37.404;2023-03-04T09:43:02;97187.66;;;4.95;74.32
24620;BME280;12763;55.802;37.404;2023-03-04T09:45:36;97176.28;;;4.63;73.81
24620;BME280;12763;55.802;37.404;2023-03-04T09:48:04;97165.94;;;4.54;73.91
24620;BME280;12763;55.802;37.404;2023-03-04T09:50:33;97165.25;;;4.47;74.69
24620;BME280;12763;55.802;37.404;2023-03-04T09:53:06;97171.03;;;4.50;74.40
24620;BME280;12763;55.802;37.404;2023-03-04T09:55:39;97160.31;;;5.07;72.99
24620;BME280;12763;55.802;37.404;2023-03-04T10:00:42;97145.50;;;5.59;70.82
24620;BME280;12763;55.802;37.404;2023-03-04T10:05:54;97145.28;;;5.77;68.01
24620;BME280;12763;55.802;37.404;2023-03-04T10:08:59;97142.31;;;5.79;68.59
24620;BME280;12763;55.802;37.404;2023-03-04T10:11:26;97127.81;;;5.78;69.34
24620;BME280;12763;55.802;37.404;2023-03-04T10:16:45;97130.06;;;5.53;69.24
24620;BME280;12763;55.802;37.404;2023-03-04T10:21:44;97109.22;;;6.09;67.82
24620;BME280;12763;55.802;37.404;2023-03-04T10:24:12;97112.63;;;5.99;68.19
24620;BME280;12763;55.802;37.404;2023-03-04T10:26:41;97106.22;;;5.94;67.11
24620;BME280;12763;55.802;37.404;2023-03-04T10:29:16;97107.47;;;5.74;67.72
24620;BME280;12763;55.802;37.404;2023-03-04T10:31:43;97109.63;;;5.72;68.00
24620;BME280;12763;55.802;37.404;2023-03-04T10:34:11;97099.38;;;5.79;68.55
24620;BME280;12763;55.802;37.404;2023-03-04T10:36:52;97092.63;;;5.54;69.27
24620;BME280;12763;55.802;37.404;2023-03-04T10:39:31;97089.88;;;5.54;70.29
24620;BME280;12763;55.802;37.404;2023-03-04T10:42:00;97087.50;;;5.57;70.91
24620;BME280;12763;55.802;37.404;2023-03-04T10:44:27;97079.44;;;5.51;72.93
24620;BME280;12763;55.802;37.404;2023-03-04T10:46:55;97077.75;;;5.50;72.95
24620;BME280;12763;55.802;37.404;2023-03-04T10:49:22;97068.75;;;5.21;72.60
24620;BME280;12763;55.802;37.404;2023-03-04T10:52:12;97072.25;;;5.33;72.90
24620;BME280;12763;55.802;37.404;2023-03-04T10:54:46;97073.91;;;5.34;74.01
24620;BME280;12763;55.802;37.404;2023-03-04T10:57:24;97055.06;;;5.49;73.83
24620;BME280;12763;55.802;37.404;2023-03-04T10:59:57;97058.22;;;5.74;72.10
24620;BME280;12763;55.802;37.404;2023-03-04T11:02:26;97055.44;;;4.85;73.61
24620;BME280;12763;55.802;37.404;2023-03-04T11:05:20;97041.91;;;4.78;76.03
24620;BME280;12763;55.802;37.404;2023-03-04T11:07:54;97037.34;;;4.95;75.38
24620;BME280;12763;55.802;37.404;2023-03-04T11:10:29;97037.56;;;5.05;75.33
24620;BME280;12763;55.802;37.404;2023-03-04T11:13:06;97031.72;;;5.13;74.15
24620;BME280;12763;55.802;37.404;2023-03-04T11:18:27;97030.84;;;5.41;73.58
24620;BME280;12763;55.802;37.404;2023-03-04T11:20:56;97023.28;;;5.03;74.37
24620;BME280;12763;55.802;37.404;2023-03-04T11:23:46;97008.88;;;4.51;76.54
24620;BME280;12763;55.802;37.404;2023-03-04T11:26:18;97016.63;;;5.11;75.81
24620;BME280;12763;55.802;37.404;2023-03-04T11:29:10;97014.91;;;5.21;75.00
24620;BME280;12763;55.802;37.404;2023-03-04T11:34:40;97004.13;;;5.15;76.43
24620;BME280;12763;55.802;37.404;2023-03-04T11:37:30;97005.94;;;5.09;78.65
24620;BME280;12763;55.802;37.404;2023-03-04T11:45:01;96990.75;;;5.02;80.74
24620;BME280;12763;55.802;37.404;2023-03-04T11:47:54;96995.13;;;5.03;82.75
24620;BME280;12763;55.802;37.404;2023-03-04T11:50:38;96976.78;;;5.15;83.81
24620;BME280;12763;55.802;37.404;2023-03-04T11:53:30;96975.13;;;5.14;83.75
24620;BME280;12763;55.802;37.404;2023-03-04T12:11:17;96951.41;;;5.03;90.91
24620;BME280;12763;55.802;37.404;2023-03-04T12:19:27;96943.94;;;4.98;93.03
24620;BME280;12763;55.802;37.404;2023-03-04T12:22:20;96935.72;;;4.82;93.52
24620;BME280;12763;55.802;37.404;2023-03-04T12:25:02;96934.44;;;4.72;95.08
24620;BME280;12763;55.802;37.404;2023-03-04T12:35:36;96919.09;;;4.83;95.36
24620;BME280;12763;55.802;37.404;2023-03-04T12:43:51;96904.72;;;4.59;97.82
24620;BME280;12763;55.802;37.404;2023-03-04T12:49:52;96894.47;;;4.38;98.46
24620;BME280;12763;55.802;37.404;2023-03-04T12:55:09;96889.56;;;4.52;98.07
24620;BME280;12763;55.802;37.404;2023-03-04T12:57:35;96881.56;;;4.79;97.35
24620;BME280;12763;55.802;37.404;2023-03-04T13:03:16;96879.03;;;4.89;96.86
24620;BME280;12763;55.802;37.404;2023-03-04T13:08:42;96859.78;;;4.84;96.46
24620;BME280;12763;55.802;37.404;2023-03-04T13:14:22;96859.47;;;4.63;98.20
24620;BME280;12763;55.802;37.404;2023-03-04T13:16:53;96847.53;;;4.69;98.19
24620;BME280;12763;55.802;37.404;2023-03-04T13:28:01;96839.56;;;4.51;100.00
24620;BME280;12763;55.802;37.404;2023-03-04T13:32:57;96821.34;;;4.40;99.71
24620;BME280;12763;55.802;37.404;2023-03-04T13:35:49;96819.03;;;4.49;100.00
24620;BME280;12763;55.802;37.404;2023-03-04T13:41:12;96814.06;;;4.46;100.00
24620;BME280;12763;55.802;37.404;2023-03-04T13:43:43;96803.50;;;4.49;100.00
24620;BME280;12763;55.802;37.404;2023-03-04T13:53:53;96804.47;;;4.43;100.00
24620;BME280;12763;55.802;37.404;2023-03-04T13:58:50;96787.34;;;4.48;100.00
24620;BME280;12763;55.802;37.404;2023-03-04T14:01:31;96777.66;;;4.40;100.00
24620;BME280;12763;55.802;37.404;2023-03-04T14:03:59;96781.19;;;4.24;100.00
24620;BME280;12763;55.802;37.404;2023-03-04T14:06:28;96780.13;;;4.25;100.00
24620;BME280;12763;55.802;37.404;2023-03-04T14:08:55;96776.03;;;4.11;100.00
24620;BME280;12763;55.802;37.404;2023-03-04T14:11:36;96764.63;;;4.14;100.00
24620;BME280;12763;55.802;37.404;2023-03-04T14:14:11;96767.53;;;4.24;100.00
24620;BME280;12763;55.802;37.404;2023-03-04T14:17:02;96761.50;;;4.22;100.00
24620;BME280;12763;55.802;37.404;2023-03-04T14:19:37;96756.47;;;4.31;100.00
24620;BME280;12763;55.802;37.404;2023-03-04T14:22:27;96752.53;;;4.10;100.00
24620;BME280;12763;55.802;37.404;2023-03-04T14:25:05;96747.16;;;4.15;100.00
24620;BME280;12763;55.802;37.404;2023-03-04T14:27:34;96750.91;;;4.26;100.00
24620;BME280;12763;55.802;37.404;2023-03-04T14:30:04;96743.94;;;4.18;100.00
24620;BME280;12763;55.802;37.404;2023-03-04T14:32:30;96749.75;;;4.22;100.00
24620;BME280;12763;55.802;37.404;2023-03-04T14:35:01;96737.47;;;4.36;100.00
24620;BME280;12763;55.802;37.404;2023-03-04T14:37:41;96743.00;;;3.96;100.00